sensor_id;sensor_type;location;lat;lon;timestamp;pressure;altitude;pressure_sealevel;temperature;humidity
50684;BME280;36654;45.042;38.994;2024-02-26T00:01:43;102012.22;;;2.30;61.05
50684;BME280;36654;45.042;38.994;2024-02-26T00:04:11;102029.31;;;2.38;61.43
50684;BME280;36654;45.042;38.994;2024-02-26T00:06:38;102016.50;;;2.29;61.20
50684;BME280;36654;45.042;38.994;2024-02-26T00:09:06;102037.16;;;2.38;61.48
50684;BME280;36654;45.042;38.994;2024-02-26T00:11:32;102011.72;;;2.22;61.46
50684;BME280;36654;45.042;38.994;2024-02-26T00:13:57;101986.88;;;2.02;61.57
50684;BME280;36654;45.042;38.994;2024-02-26T00:16:23;102023.16;;;2.24;61.54
50684;BME280;36654;45.042;38.994;2024-02-26T00:18:49;102031.44;;;2.30;61.71
50684;BME280;36654;45.042;38.994;2024-02-26T00:21:15;102034.81;;;2.29;61.70
50684;BME280;36654;45.042;38.994;2024-02-26T00:23:41;102020.16;;;2.18;61.88
50684;BME280;36654;45.042;38.994;2024-02-26T00:26:06;102022.19;;;2.22;61.80
50684;BME280;36654;45.042;38.994;2024-02-26T00:28:33;102015.13;;;2.21;61.96
50684;BME280;36654;45.042;38.994;2024-02-26T00:30:59;102009.97;;;2.09;62.00
50684;BME280;36654;45.042;38.994;2024-02-26T00:33:25;102003.25;;;2.13;62.08
50684;BME280;36654;45.042;38.994;2024-02-26T00:35:50;102009.28;;;2.12;61.98
50684;BME280;36654;45.042;38.994;2024-02-26T00:38:16;102014.50;;;2.12;61.90
50684;BME280;36654;45.042;38.994;2024-02-26T00:40:42;101998.81;;;1.99;62.28
50684;BME280;36654;45.042;38.994;2024-02-26T00:43:07;102016.41;;;2.01;62.08
50684;BME280;36654;45.042;38.994;2024-02-26T00:45:33;102012.09;;;2.02;62.34
50684;BME280;36654;45.042;38.994;2024-02-26T00:47:59;102007.56;;;1.99;62.47
50684;BME280;36654;45.042;38.994;2024-02-26T00:50:31;101983.13;;;1.85;62.36
50684;BME280;36654;45.042;38.994;2024-02-26T00:52:56;101955.34;;;1.61;62.65
50684;BME280;36654;45.042;38.994;2024-02-26T00:55:22;101980.91;;;1.78;62.84
50684;BME280;36654;45.042;38.994;2024-02-26T00:57:48;101997.59;;;1.80;62.69
50684;BME280;36654;45.042;38.994;2024-02-26T01:00:14;101931.81;;;1.47;62.74
50684;BME280;36654;45.042;38.994;2024-02-26T01:02:40;101989.75;;;1.80;63.00
50684;BME280;36654;45.042;38.994;2024-02-26T01:05:07;102005.47;;;1.80;63.10
50684;BME280;36654;45.042;38.994;2024-02-26T01:07:34;102003.44;;;1.76;63.23
50684;BME280;36654;45.042;38.994;2024-02-26T01:10:02;101976.38;;;1.62;63.29
50684;BME280;36654;45.042;38.994;2024-02-26T01:12:28;102015.28;;;1.71;63.12
50684;BME280;36654;45.042;38.994;2024-02-26T01:14:54;101999.41;;;1.68;63.28
50684;BME280;36654;45.042;38.994;2024-02-26T01:17:19;102001.81;;;1.65;63.38
50684;BME280;36654;45.042;38.994;2024-02-26T01:19:45;101988.75;;;1.65;63.66
50684;BME280;36654;45.042;38.994;2024-02-26T01:22:10;101968.41;;;1.47;63.51
50684;BME280;36654;45.042;38.994;2024-02-26T01:24:36;101990.13;;;1.60;63.75
50684;BME280;36654;45.042;38.994;2024-02-26T01:27:02;101989.91;;;1.57;63.70
50684;BME280;36654;45.042;38.994;2024-02-26T01:29:28;101974.81;;;1.39;63.94
50684;BME280;36654;45.042;38.994;2024-02-26T01:31:53;101993.16;;;1.53;63.93
50684;BME280;36654;45.042;38.994;2024-02-26T01:34:20;101985.50;;;1.42;64.16
50684;BME280;36654;45.042;38.994;2024-02-26T01:36:46;101978.22;;;1.38;64.13
50684;BME280;36654;45.042;38.994;2024-02-26T01:39:11;101953.69;;;1.23;64.04
50684;BME280;36654;45.042;38.994;2024-02-26T01:41:41;101933.16;;;1.16;64.12
50684;BME280;36654;45.042;38.994;2024-02-26T01:44:06;102008.41;;;1.46;64.07
50684;BME280;36654;45.042;38.994;2024-02-26T01:46:35;102002.16;;;1.44;64.27
50684;BME280;36654;45.042;38.994;2024-02-26T01:49:02;101996.03;;;1.44;64.24
50684;BME280;36654;45.042;38.994;2024-02-26T01:51:29;101978.94;;;1.36;64.18
50684;BME280;36654;45.042;38.994;2024-02-26T01:53:55;101952.47;;;1.18;64.32
50684;BME280;36654;45.042;38.994;2024-02-26T01:56:21;101996.41;;;1.37;64.27
50684;BME280;36654;45.042;38.994;2024-02-26T01:58:48;101988.47;;;1.35;64.40
50684;BME280;36654;45.042;38.994;2024-02-26T02:01:15;101966.31;;;1.17;64.65
50684;BME280;36654;45.042;38.994;2024-02-26T02:03:44;101987.47;;;1.33;64.68
50684;BME280;36654;45.042;38.994;2024-02-26T02:06:11;102003.50;;;1.26;64.66
50684;BME280;36654;45.042;38.994;2024-02-26T02:08:37;101997.06;;;1.21;64.88
50684;BME280;36654;45.042;38.994;2024-02-26T02:11:04;101982.19;;;1.20;64.78
50684;BME280;36654;45.042;38.994;2024-02-26T02:13:30;101984.00;;;1.21;64.76
50684;BME280;36654;45.042;38.994;2024-02-26T02:15:55;101971.13;;;1.11;64.86
50684;BME280;36654;45.042;38.994;2024-02-26T02:18:21;101990.81;;;1.19;65.00
50684;BME280;36654;45.042;38.994;2024-02-26T02:20:47;101984.59;;;1.17;65.17
50684;BME280;36654;45.042;38.994;2024-02-26T02:23:12;101979.97;;;1.13;65.14
50684;BME280;36654;45.042;38.994;2024-02-26T02:25:39;101977.94;;;1.08;65.30
50684;BME280;36654;45.042;38.994;2024-02-26T02:28:05;101977.13;;;1.10;65.48
50684;BME280;36654;45.042;38.994;2024-02-26T02:30:32;101976.13;;;1.07;65.47
50684;BME280;36654;45.042;38.994;2024-02-26T02:32:59;101929.59;;;0.77;65.56
50684;BME280;36654;45.042;38.994;2024-02-26T02:35:25;101971.50;;;1.03;65.52
50684;BME280;36654;45.042;38.994;2024-02-26T02:37:55;101975.50;;;0.98;65.68
50684;BME280;36654;45.042;38.994;2024-02-26T02:40:21;101965.25;;;1.01;65.75
50684;BME280;36654;45.042;38.994;2024-02-26T02:42:47;101977.09;;;0.96;65.85
50684;BME280;36654;45.042;38.994;2024-02-26T02:45:12;101973.44;;;0.94;65.87
50684;BME280;36654;45.042;38.994;2024-02-26T02:47:38;101971.44;;;0.90;65.98
50684;BME280;36654;45.042;38.994;2024-02-26T02:50:04;101943.56;;;0.77;66.02
50684;BME280;36654;45.042;38.994;2024-02-26T02:52:30;101967.81;;;0.88;66.00
50684;BME280;36654;45.042;38.994;2024-02-26T02:54:56;101955.47;;;0.85;66.23
50684;BME280;36654;45.042;38.994;2024-02-26T02:57:22;101950.59;;;0.78;66.19
50684;BME280;36654;45.042;38.994;2024-02-26T02:59:50;101927.97;;;0.66;66.52
50684;BME280;36654;45.042;38.994;2024-02-26T03:02:16;101969.97;;;0.82;66.36
50684;BME280;36654;45.042;38.994;2024-02-26T03:04:42;101960.16;;;0.78;66.58
50684;BME280;36654;45.042;38.994;2024-02-26T03:07:07;101965.38;;;0.78;66.41
50684;BME280;36654;45.042;38.994;2024-02-26T03:09:33;101965.13;;;0.75;66.38
50684;BME280;36654;45.042;38.994;2024-02-26T03:11:59;101966.75;;;0.73;66.68
50684;BME280;36654;45.042;38.994;2024-02-26T03:14:24;101966.63;;;0.71;66.57
50684;BME280;36654;45.042;38.994;2024-02-26T03:16:54;101964.06;;;0.59;67.02
50684;BME280;36654;45.042;38.994;2024-02-26T03:19:20;101963.03;;;0.57;66.74
50684;BME280;36654;45.042;38.994;2024-02-26T03:21:46;101969.50;;;0.62;67.12
50684;BME280;36654;45.042;38.994;2024-02-26T03:24:11;101970.28;;;0.61;67.11
50684;BME280;36654;45.042;38.994;2024-02-26T03:26:37;101989.94;;;0.56;67.03
50684;BME280;36654;45.042;38.994;2024-02-26T03:29:04;101960.22;;;0.54;67.21
50684;BME280;36654;45.042;38.994;2024-02-26T03:31:29;101916.50;;;0.27;67.18
50684;BME280;36654;45.042;38.994;2024-02-26T03:33:55;101964.53;;;0.54;67.32
50684;BME280;36654;45.042;38.994;2024-02-26T03:36:21;101967.72;;;0.50;67.54
50684;BME280;36654;45.042;38.994;2024-02-26T03:38:49;101979.06;;;0.50;67.45
50684;BME280;36654;45.042;38.994;2024-02-26T03:41:15;101977.94;;;0.47;67.53
50684;BME280;36654;45.042;38.994;2024-02-26T03:43:40;101972.94;;;0.50;67.58
50684;BME280;36654;45.042;38.994;2024-02-26T03:46:09;101982.25;;;0.46;67.68
50684;BME280;36654;45.042;38.994;2024-02-26T03:48:36;101972.72;;;0.47;67.65
50684;BME280;36654;45.042;38.994;2024-02-26T03:51:03;101962.75;;;0.41;67.63
50684;BME280;36654;45.042;38.994;2024-02-26T03:53:28;101948.50;;;0.24;67.76
50684;BME280;36654;45.042;38.994;2024-02-26T03:55:54;101968.31;;;0.34;67.81
50684;BME280;36654;45.042;38.994;2024-02-26T03:58:21;101972.72;;;0.35;67.86
50684;BME280;36654;45.042;38.994;2024-02-26T04:00:46;101975.34;;;0.35;67.87
50684;BME280;36654;45.042;38.994;2024-02-26T04:03:15;101902.66;;;-0.09;67.78
50684;BME280;36654;45.042;38.994;2024-02-26T04:05:41;101961.66;;;0.26;68.05
50684;BME280;36654;45.042;38.994;2024-02-26T04:08:06;101989.06;;;0.32;68.13
50684;BME280;36654;45.042;38.994;2024-02-26T04:10:35;101968.19;;;0.32;68.18
50684;BME280;36654;45.042;38.994;2024-02-26T04:13:03;101991.59;;;0.31;68.14
50684;BME280;36654;45.042;38.994;2024-02-26T04:15:29;101982.38;;;0.36;68.18
50684;BME280;36654;45.042;38.994;2024-02-26T04:17:56;101900.56;;;0.10;68.03
50684;BME280;36654;45.042;38.994;2024-02-26T04:20:22;101983.78;;;0.68;67.36
50684;BME280;36654;45.042;38.994;2024-02-26T04:22:48;101966.75;;;0.73;66.97
50684;BME280;36654;45.042;38.994;2024-02-26T04:25:13;101979.91;;;0.99;66.56
50684;BME280;36654;45.042;38.994;2024-02-26T04:27:39;101957.00;;;0.95;65.83
50684;BME280;36654;45.042;38.994;2024-02-26T04:30:06;101976.75;;;0.92;65.75
50684;BME280;36654;45.042;38.994;2024-02-26T04:32:32;101957.63;;;0.79;65.82
50684;BME280;36654;45.042;38.994;2024-02-26T04:35:00;101937.94;;;0.59;66.13
50684;BME280;36654;45.042;38.994;2024-02-26T04:37:25;101945.16;;;0.50;66.13
50684;BME280;36654;45.042;38.994;2024-02-26T04:39:58;101958.41;;;0.53;66.43
50684;BME280;36654;45.042;38.994;2024-02-26T04:42:24;101965.88;;;0.60;66.63
50684;BME280;36654;45.042;38.994;2024-02-26T04:44:50;101957.97;;;0.47;66.67
50684;BME280;36654;45.042;38.994;2024-02-26T04:47:15;101900.19;;;0.17;66.60
50684;BME280;36654;45.042;38.994;2024-02-26T04:49:41;101977.00;;;0.58;66.78
50684;BME280;36654;45.042;38.994;2024-02-26T04:52:07;101964.66;;;0.55;66.86
50684;BME280;36654;45.042;38.994;2024-02-26T04:54:33;101972.47;;;0.55;66.74
50684;BME280;36654;45.042;38.994;2024-02-26T04:56:58;101961.38;;;0.46;66.72
50684;BME280;36654;45.042;38.994;2024-02-26T04:59:24;101966.13;;;0.52;67.03
50684;BME280;36654;45.042;38.994;2024-02-26T05:01:50;101961.72;;;0.39;67.03
50684;BME280;36654;45.042;38.994;2024-02-26T05:04:20;101951.16;;;0.37;67.03
50684;BME280;36654;45.042;38.994;2024-02-26T05:06:47;101973.03;;;0.51;66.93
50684;BME280;36654;45.042;38.994;2024-02-26T05:09:13;101964.31;;;0.51;66.94
50684;BME280;36654;45.042;38.994;2024-02-26T05:11:39;101975.53;;;0.50;67.16
50684;BME280;36654;45.042;38.994;2024-02-26T05:14:07;101934.56;;;0.24;67.12
50684;BME280;36654;45.042;38.994;2024-02-26T05:16:33;101976.34;;;0.49;66.85
50684;BME280;36654;45.042;38.994;2024-02-26T05:18:59;101945.75;;;0.34;67.08
50684;BME280;36654;45.042;38.994;2024-02-26T05:21:24;101967.03;;;0.52;66.79
50684;BME280;36654;45.042;38.994;2024-02-26T05:23:50;101976.06;;;0.57;67.05
50684;BME280;36654;45.042;38.994;2024-02-26T05:26:20;101982.91;;;0.55;66.67
50684;BME280;36654;45.042;38.994;2024-02-26T05:28:46;101969.06;;;0.56;66.69
50684;BME280;36654;45.042;38.994;2024-02-26T05:31:13;101942.31;;;0.47;66.67
50684;BME280;36654;45.042;38.994;2024-02-26T05:33:39;101984.47;;;0.65;66.85
50684;BME280;36654;45.042;38.994;2024-02-26T05:36:05;101956.59;;;0.52;66.63
50684;BME280;36654;45.042;38.994;2024-02-26T05:38:31;101949.16;;;0.45;66.42
50684;BME280;36654;45.042;38.994;2024-02-26T05:40:58;101968.69;;;0.63;66.66
50684;BME280;36654;45.042;38.994;2024-02-26T05:43:25;101963.13;;;0.71;66.61
50684;BME280;36654;45.042;38.994;2024-02-26T05:45:50;101970.59;;;0.78;66.42
50684;BME280;36654;45.042;38.994;2024-02-26T05:48:16;101969.56;;;0.76;66.47
50684;BME280;36654;45.042;38.994;2024-02-26T05:50:42;101982.50;;;0.74;66.36
50684;BME280;36654;45.042;38.994;2024-02-26T05:53:07;101972.19;;;0.76;66.16
50684;BME280;36654;45.042;38.994;2024-02-26T05:55:33;101945.22;;;0.63;66.28
50684;BME280;36654;45.042;38.994;2024-02-26T05:57:59;101906.47;;;0.45;66.54
50684;BME280;36654;45.042;38.994;2024-02-26T06:00:24;101969.41;;;0.86;66.29
50684;BME280;36654;45.042;38.994;2024-02-26T06:02:50;101968.03;;;0.91;66.14
50684;BME280;36654;45.042;38.994;2024-02-26T06:05:16;101957.59;;;0.91;66.06
50684;BME280;36654;45.042;38.994;2024-02-26T06:07:41;101972.06;;;0.99;65.73
50684;BME280;36654;45.042;38.994;2024-02-26T06:10:07;101976.50;;;1.00;65.78
50684;BME280;36654;45.042;38.994;2024-02-26T06:12:35;101974.09;;;1.03;65.76
50684;BME280;36654;45.042;38.994;2024-02-26T06:15:01;101974.31;;;1.06;65.23
50684;BME280;36654;45.042;38.994;2024-02-26T06:17:27;101965.25;;;1.01;65.29
50684;BME280;36654;45.042;38.994;2024-02-26T06:19:53;101963.44;;;1.00;65.41
50684;BME280;36654;45.042;38.994;2024-02-26T06:22:19;101949.78;;;1.04;65.23
50684;BME280;36654;45.042;38.994;2024-02-26T06:24:45;101977.66;;;1.17;65.20
50684;BME280;36654;45.042;38.994;2024-02-26T06:27:10;101961.28;;;1.20;65.11
50684;BME280;36654;45.042;38.994;2024-02-26T06:29:36;101970.13;;;1.22;64.99
50684;BME280;36654;45.042;38.994;2024-02-26T06:32:02;101919.44;;;0.93;64.83
50684;BME280;36654;45.042;38.994;2024-02-26T06:34:27;101968.34;;;1.21;64.92
50684;BME280;36654;45.042;38.994;2024-02-26T06:36:53;101964.72;;;1.19;64.99
50684;BME280;36654;45.042;38.994;2024-02-26T06:39:19;101934.34;;;1.07;64.88
50684;BME280;36654;45.042;38.994;2024-02-26T06:41:45;101893.69;;;0.86;64.93
50684;BME280;36654;45.042;38.994;2024-02-26T06:44:13;101945.22;;;1.27;64.78
50684;BME280;36654;45.042;38.994;2024-02-26T06:46:40;101966.25;;;1.42;64.92
50684;BME280;36654;45.042;38.994;2024-02-26T06:49:05;101951.41;;;1.41;65.01
50684;BME280;36654;45.042;38.994;2024-02-26T06:51:31;101885.00;;;1.12;64.73
50684;BME280;36654;45.042;38.994;2024-02-26T06:53:57;101952.94;;;1.50;64.56
50684;BME280;36654;45.042;38.994;2024-02-26T06:56:23;101990.94;;;1.59;64.28
50684;BME280;36654;45.042;38.994;2024-02-26T06:58:49;101979.47;;;1.57;64.07
50684;BME280;36654;45.042;38.994;2024-02-26T07:01:14;101975.84;;;1.55;64.17
50684;BME280;36654;45.042;38.994;2024-02-26T07:03:40;101963.78;;;1.57;63.94
50684;BME280;36654;45.042;38.994;2024-02-26T07:06:06;101959.69;;;1.60;64.27
50684;BME280;36654;45.042;38.994;2024-02-26T07:08:32;101955.97;;;1.70;64.24
50684;BME280;36654;45.042;38.994;2024-02-26T07:10:58;101970.53;;;1.80;63.83
50684;BME280;36654;45.042;38.994;2024-02-26T07:13:23;101964.63;;;1.82;63.68
50684;BME280;36654;45.042;38.994;2024-02-26T07:15:49;101906.06;;;1.54;63.25
50684;BME280;36654;45.042;38.994;2024-02-26T07:18:15;101936.53;;;1.80;63.19
50684;BME280;36654;45.042;38.994;2024-02-26T07:20:40;101956.59;;;1.92;63.30
50684;BME280;36654;45.042;38.994;2024-02-26T07:23:06;101895.63;;;1.67;63.07
50684;BME280;36654;45.042;38.994;2024-02-26T07:25:32;101889.09;;;1.73;62.58
50684;BME280;36654;45.042;38.994;2024-02-26T07:27:58;101955.84;;;2.22;62.28
50684;BME280;36654;45.042;38.994;2024-02-26T07:30:23;101952.91;;;2.30;62.24
50684;BME280;36654;45.042;38.994;2024-02-26T07:32:50;101946.84;;;2.45;62.08
50684;BME280;36654;45.042;38.994;2024-02-26T07:35:17;101906.38;;;2.40;61.71
50684;BME280;36654;45.042;38.994;2024-02-26T07:37:43;101938.09;;;2.72;61.40
50684;BME280;36654;45.042;38.994;2024-02-26T07:40:09;101910.84;;;2.84;61.02
50684;BME280;36654;45.042;38.994;2024-02-26T07:42:35;101923.00;;;3.11;60.41
50684;BME280;36654;45.042;38.994;2024-02-26T07:45:02;101918.88;;;3.30;59.91
50684;BME280;36654;45.042;38.994;2024-02-26T07:47:28;101932.94;;;3.46;59.37
50684;BME280;36654;45.042;38.994;2024-02-26T07:49:55;101926.09;;;3.63;58.82
50684;BME280;36654;45.042;38.994;2024-02-26T07:52:20;101876.00;;;3.44;58.28
50684;BME280;36654;45.042;38.994;2024-02-26T07:54:46;101925.00;;;3.75;57.93
50684;BME280;36654;45.042;38.994;2024-02-26T07:57:11;101917.75;;;3.71;57.43
50684;BME280;36654;45.042;38.994;2024-02-26T07:59:40;101917.75;;;3.71;57.41
50684;BME280;36654;45.042;38.994;2024-02-26T08:02:06;101908.59;;;3.79;57.58
50684;BME280;36654;45.042;38.994;2024-02-26T08:04:32;101913.81;;;3.94;57.61
50684;BME280;36654;45.042;38.994;2024-02-26T08:06:57;101911.00;;;4.05;57.40
50684;BME280;36654;45.042;38.994;2024-02-26T08:09:23;101904.13;;;4.07;56.93
50684;BME280;36654;45.042;38.994;2024-02-26T08:11:49;101906.59;;;4.21;56.46
50684;BME280;36654;45.042;38.994;2024-02-26T08:14:14;101898.47;;;4.16;56.45
50684;BME280;36654;45.042;38.994;2024-02-26T08:16:40;101900.63;;;4.23;56.45
50684;BME280;36654;45.042;38.994;2024-02-26T08:19:06;101903.34;;;4.25;56.04
50684;BME280;36654;45.042;38.994;2024-02-26T08:21:31;101900.25;;;4.32;56.14
50684;BME280;36654;45.042;38.994;2024-02-26T08:23:57;101899.72;;;4.39;56.05
50684;BME280;36654;45.042;38.994;2024-02-26T08:26:23;101904.44;;;4.45;55.90
50684;BME280;36654;45.042;38.994;2024-02-26T08:28:49;101899.44;;;4.49;55.97
50684;BME280;36654;45.042;38.994;2024-02-26T08:31:16;101897.13;;;4.56;55.73
50684;BME280;36654;45.042;38.994;2024-02-26T08:33:42;101898.44;;;4.64;55.61
50684;BME280;36654;45.042;38.994;2024-02-26T08:36:08;101902.41;;;4.72;55.52
50684;BME280;36654;45.042;38.994;2024-02-26T08:38:33;101882.34;;;4.74;55.32
50684;BME280;36654;45.042;38.994;2024-02-26T08:41:01;101865.13;;;4.63;55.21
50684;BME280;36654;45.042;38.994;2024-02-26T08:43:28;101894.09;;;4.97;54.83
50684;BME280;36654;45.042;38.994;2024-02-26T08:45:54;101898.75;;;5.03;54.53
50684;BME280;36654;45.042;38.994;2024-02-26T08:48:19;101915.56;;;5.06;54.33
50684;BME280;36654;45.042;38.994;2024-02-26T08:50:45;101908.06;;;5.14;54.16
50684;BME280;36654;45.042;38.994;2024-02-26T08:53:11;101891.00;;;5.22;54.26
50684;BME280;36654;45.042;38.994;2024-02-26T08:55:36;101895.94;;;5.34;53.79
50684;BME280;36654;45.042;38.994;2024-02-26T08:58:02;101884.88;;;5.39;53.49
50684;BME280;36654;45.042;38.994;2024-02-26T09:00:28;101880.75;;;5.45;53.39
50684;BME280;36654;45.042;38.994;2024-02-26T09:02:53;101875.25;;;5.58;53.38
50684;BME280;36654;45.042;38.994;2024-02-26T09:05:19;101850.81;;;5.60;52.84
50684;BME280;36654;45.042;38.994;2024-02-26T09:07:45;101818.00;;;5.52;52.79
50684;BME280;36654;45.042;38.994;2024-02-26T09:10:12;101860.53;;;5.97;52.10
50684;BME280;36654;45.042;38.994;2024-02-26T09:12:38;101847.75;;;6.05;51.37
50684;BME280;36654;45.042;38.994;2024-02-26T09:15:06;101847.69;;;6.23;51.23
50684;BME280;36654;45.042;38.994;2024-02-26T09:17:32;101835.97;;;6.16;50.98
50684;BME280;36654;45.042;38.994;2024-02-26T09:19:58;101840.00;;;6.28;50.80
50684;BME280;36654;45.042;38.994;2024-02-26T09:22:24;101829.47;;;6.28;50.96
50684;BME280;36654;45.042;38.994;2024-02-26T09:24:50;101823.78;;;6.38;50.62
50684;BME280;36654;45.042;38.994;2024-02-26T09:27:17;101822.19;;;6.41;50.38
50684;BME280;36654;45.042;38.994;2024-02-26T09:29:43;101825.19;;;6.49;50.17
50684;BME280;36654;45.042;38.994;2024-02-26T09:32:08;101827.00;;;6.50;49.91
50684;BME280;36654;45.042;38.994;2024-02-26T09:34:34;101827.13;;;6.53;50.18
50684;BME280;36654;45.042;38.994;2024-02-26T09:37:00;101828.22;;;6.58;50.22
50684;BME280;36654;45.042;38.994;2024-02-26T09:39:26;101819.56;;;6.61;50.07
50684;BME280;36654;45.042;38.994;2024-02-26T09:41:53;101813.53;;;6.63;49.79
50684;BME280;36654;45.042;38.994;2024-02-26T09:44:19;101800.75;;;6.73;49.85
50684;BME280;36654;45.042;38.994;2024-02-26T09:46:48;101789.00;;;6.85;49.59
50684;BME280;36654;45.042;38.994;2024-02-26T09:49:19;101742.34;;;6.83;49.54
50684;BME280;36654;45.042;38.994;2024-02-26T09:51:46;101811.34;;;7.15;48.81
50684;BME280;36654;45.042;38.994;2024-02-26T09:54:15;101799.59;;;7.06;49.03
50684;BME280;36654;45.042;38.994;2024-02-26T09:56:42;101785.56;;;7.07;48.94
50684;BME280;36654;45.042;38.994;2024-02-26T09:59:13;101775.47;;;6.97;48.81
50684;BME280;36654;45.042;38.994;2024-02-26T10:01:42;101783.63;;;7.03;48.83
50684;BME280;36654;45.042;38.994;2024-02-26T10:04:08;101781.19;;;7.08;48.87
50684;BME280;36654;45.042;38.994;2024-02-26T10:06:36;101768.06;;;7.09;48.82
50684;BME280;36654;45.042;38.994;2024-02-26T10:09:02;101725.56;;;6.81;48.56
50684;BME280;36654;45.042;38.994;2024-02-26T10:11:32;101776.19;;;7.14;48.52
50684;BME280;36654;45.042;38.994;2024-02-26T10:13:58;101759.31;;;7.10;48.49
50684;BME280;36654;45.042;38.994;2024-02-26T10:16:24;101752.56;;;7.17;49.00
50684;BME280;36654;45.042;38.994;2024-02-26T10:18:52;101754.31;;;7.17;48.81
50684;BME280;36654;45.042;38.994;2024-02-26T10:21:20;101755.97;;;7.15;48.65
50684;BME280;36654;45.042;38.994;2024-02-26T10:23:46;101701.63;;;6.97;48.55
50684;BME280;36654;45.042;38.994;2024-02-26T10:26:14;101744.38;;;7.32;48.53
50684;BME280;36654;45.042;38.994;2024-02-26T10:28:41;101738.44;;;7.38;48.25
50684;BME280;36654;45.042;38.994;2024-02-26T10:31:08;101727.66;;;7.31;48.31
50684;BME280;36654;45.042;38.994;2024-02-26T10:33:35;101686.75;;;7.20;48.31
50684;BME280;36654;45.042;38.994;2024-02-26T10:36:06;101724.00;;;7.50;48.13
50684;BME280;36654;45.042;38.994;2024-02-26T10:38:33;101731.31;;;7.57;47.96
50684;BME280;36654;45.042;38.994;2024-02-26T10:41:01;101738.75;;;7.68;47.45
50684;BME280;36654;45.042;38.994;2024-02-26T10:43:27;101719.19;;;7.63;47.05
50684;BME280;36654;45.042;38.994;2024-02-26T10:45:56;101735.28;;;7.69;46.92
50684;BME280;36654;45.042;38.994;2024-02-26T10:48:22;101718.59;;;7.70;47.03
50684;BME280;36654;45.042;38.994;2024-02-26T10:50:48;101667.28;;;7.39;47.02
50684;BME280;36654;45.042;38.994;2024-02-26T10:53:20;101724.72;;;7.69;47.19
50684;BME280;36654;45.042;38.994;2024-02-26T10:55:55;101724.25;;;7.79;47.28
50684;BME280;36654;45.042;38.994;2024-02-26T10:58:22;101715.75;;;7.88;47.38
50684;BME280;36654;45.042;38.994;2024-02-26T11:00:50;101694.72;;;7.91;47.19
50684;BME280;36654;45.042;38.994;2024-02-26T11:03:16;101707.06;;;8.14;46.98
50684;BME280;36654;45.042;38.994;2024-02-26T11:05:49;101700.75;;;8.11;46.12
50684;BME280;36654;45.042;38.994;2024-02-26T11:08:19;101719.94;;;8.29;45.87
50684;BME280;36654;45.042;38.994;2024-02-26T11:10:50;101712.03;;;8.31;45.83
50684;BME280;36654;45.042;38.994;2024-02-26T11:13:18;101704.19;;;8.32;45.75
50684;BME280;36654;45.042;38.994;2024-02-26T11:15:46;101656.09;;;8.17;45.61
50684;BME280;36654;45.042;38.994;2024-02-26T11:18:14;101683.63;;;8.48;45.40
50684;BME280;36654;45.042;38.994;2024-02-26T11:20:40;101683.06;;;8.56;45.28
50684;BME280;36654;45.042;38.994;2024-02-26T11:23:07;101689.53;;;8.66;44.84
50684;BME280;36654;45.042;38.994;2024-02-26T11:25:35;101678.19;;;8.69;44.91
50684;BME280;36654;45.042;38.994;2024-02-26T11:28:05;101689.84;;;8.75;44.59
50684;BME280;36654;45.042;38.994;2024-02-26T11:30:34;101675.91;;;8.79;44.19
50684;BME280;36654;45.042;38.994;2024-02-26T11:33:01;101670.69;;;8.82;44.32
50684;BME280;36654;45.042;38.994;2024-02-26T11:35:27;101663.81;;;8.88;44.28
50684;BME280;36654;45.042;38.994;2024-02-26T11:37:57;101663.91;;;8.91;44.22
50684;BME280;36654;45.042;38.994;2024-02-26T11:40:26;101674.69;;;8.97;43.98
50684;BME280;36654;45.042;38.994;2024-02-26T11:42:53;101663.34;;;9.01;43.65
50684;BME280;36654;45.042;38.994;2024-02-26T11:48:03;101657.63;;;9.14;43.42
50684;BME280;36654;45.042;38.994;2024-02-26T11:50:36;101661.31;;;9.19;43.18
50684;BME280;36654;45.042;38.994;2024-02-26T11:58:43;101643.09;;;9.28;42.24
50684;BME280;36654;45.042;38.994;2024-02-26T12:04:05;101657.53;;;9.40;41.82
50684;BME280;36654;45.042;38.994;2024-02-26T12:06:39;101655.88;;;9.43;41.76
50684;BME280;36654;45.042;38.994;2024-02-26T12:09:05;101650.69;;;9.46;41.74
50684;BME280;36654;45.042;38.994;2024-02-26T12:11:31;101631.06;;;9.40;41.93
50684;BME280;36654;45.042;38.994;2024-02-26T12:13:57;101552.00;;;8.92;41.71
50684;BME280;36654;45.042;38.994;2024-02-26T12:16:38;101623.41;;;9.49;41.22
50684;BME280;36654;45.042;38.994;2024-02-26T12:19:06;101630.94;;;9.65;41.24
50684;BME280;36654;45.042;38.994;2024-02-26T12:21:36;101630.31;;;9.74;41.31
50684;BME280;36654;45.042;38.994;2024-02-26T12:24:13;101648.22;;;9.83;41.31
50684;BME280;36654;45.042;38.994;2024-02-26T12:26:39;101640.47;;;9.89;40.98
50684;BME280;36654;45.042;38.994;2024-02-26T12:29:06;101634.38;;;9.93;40.40
50684;BME280;36654;45.042;38.994;2024-02-26T12:31:32;101626.53;;;9.96;40.65
50684;BME280;36654;45.042;38.994;2024-02-26T12:34:00;101638.16;;;10.01;40.63
50684;BME280;36654;45.042;38.994;2024-02-26T12:36:26;101568.59;;;9.77;40.84
50684;BME280;36654;45.042;38.994;2024-02-26T12:38:52;101639.25;;;10.09;40.82
50684;BME280;36654;45.042;38.994;2024-02-26T12:41:18;101619.81;;;10.09;40.54
50684;BME280;36654;45.042;38.994;2024-02-26T12:43:44;101617.97;;;10.06;40.51
50684;BME280;36654;45.042;38.994;2024-02-26T12:46:10;101614.53;;;10.10;40.61
50684;BME280;36654;45.042;38.994;2024-02-26T12:48:38;101618.22;;;10.15;40.70
50684;BME280;36654;45.042;38.994;2024-02-26T12:51:05;101615.75;;;10.22;40.73
50684;BME280;36654;45.042;38.994;2024-02-26T12:53:31;101618.47;;;10.25;40.63
50684;BME280;36654;45.042;38.994;2024-02-26T12:55:57;101628.25;;;10.27;40.68
50684;BME280;36654;45.042;38.994;2024-02-26T12:58:23;101620.38;;;10.29;40.38